Time;durP1;ratioP1;P1;durP2;ratioP2;P2;SDS_P1;SDS_P2;PMS_P1;PMS_P2;Temp;Humidity;BMP_temperature;BMP_pressure;BME280_temperature;BME280_humidity;BME280_pressure;Samples;Min_cycle;Max_cycle;Signal;HPM_P1;HPM_P2
2023/08/03 00:00:17;;;;;;;6.00;2.10;;;;;;;;;;5012521;28;20033;-77
2023/08/03 00:02:42;;;;;;;4.85;2.15;;;;;;;;;;5012723;28;20018;-76
2023/08/03 00:05:08;;;;;;;7.53;1.52;;;;;;;;;;5012396;28;20041;-77
2023/08/03 00:07:33;;;;;;;5.50;1.85;;;;;;;;;;5012593;28;20042;-77
2023/08/03 00:09:59;;;;;;;2.58;1.50;;;;;;;;;;5012052;28;20033;-75
2023/08/03 00:12:25;;;;;;;6.68;2.30;;;;;;;;;;5012065;28;20111;-77
2023/08/03 00:14:51;;;;;;;6.95;2.10;;;;;;;;;;5012017;28;20028;-77
2023/08/03 00:17:17;;;;;;;4.55;1.73;;;;;;;;;;5011730;28;20169;-77
2023/08/03 00:19:42;;;;;;;8.77;1.95;;;;;;;;;;5026938;28;20530;-76
2023/08/03 00:22:08;;;;;;;10.63;2.25;;;;;;;;;;5012395;28;20122;-77
2023/08/03 00:24:33;;;;;;;3.42;1.75;;;;;;;;;;5012546;28;20491;-75
2023/08/03 00:26:59;;;;;;;4.45;2.17;;;;;;;;;;5026790;28;20022;-76
2023/08/03 00:29:24;;;;;;;6.22;1.80;;;;;;;;;;5011832;28;20084;-77
2023/08/03 00:31:49;;;;;;;8.35;2.08;;;;;;;;;;5011419;28;20069;-76
2023/08/03 00:34:14;;;;;;;5.95;2.08;;;;;;;;;;5026556;28;20041;-76
2023/08/03 00:36:40;;;;;;;5.50;1.92;;;;;;;;;;5026242;28;20041;-76
2023/08/03 00:39:05;;;;;;;7.28;2.15;;;;;;;;;;5011276;28;20049;-77
2023/08/03 00:41:31;;;;;;;4.53;1.90;;;;;;;;;;5027117;28;20017;-75
2023/08/03 00:43:56;;;;;;;9.15;2.53;;;;;;;;;;5011197;28;20064;-76
2023/08/03 00:46:21;;;;;;;5.85;2.05;;;;;;;;;;5026525;28;20112;-76
2023/08/03 00:48:47;;;;;;;4.80;2.10;;;;;;;;;;5011430;28;20041;-77
2023/08/03 00:51:12;;;;;;;10.98;2.47;;;;;;;;;;5011253;28;20227;-77
2023/08/03 00:53:37;;;;;;;8.00;2.42;;;;;;;;;;5011815;28;20038;-76
2023/08/03 00:56:03;;;;;;;6.22;2.08;;;;;;;;;;5011373;28;20037;-77
2023/08/03 00:58:28;;;;;;;4.97;2.30;;;;;;;;;;5011784;28;20122;-77
2023/08/03 01:00:54;;;;;;;10.50;2.35;;;;;;;;;;5026475;28;20125;-76
2023/08/03 01:03:19;;;;;;;8.77;2.30;;;;;;;;;;5018272;28;20457;-77
2023/08/03 01:05:44;;;;;;;5.10;2.03;;;;;;;;;;5027273;28;20056;-77
2023/08/03 01:08:10;;;;;;;4.82;2.10;;;;;;;;;;5011826;28;20045;-77
2023/08/03 01:10:35;;;;;;;7.13;2.13;;;;;;;;;;5011089;28;20045;-76
2023/08/03 01:13:01;;;;;;;10.77;2.40;;;;;;;;;;5011047;28;20117;-76
2023/08/03 01:15:26;;;;;;;10.57;2.33;;;;;;;;;;5011419;28;20038;-77
2023/08/03 01:17:51;;;;;;;8.98;2.38;;;;;;;;;;5026883;28;20545;-76
2023/08/03 01:20:18;;;;;;;7.80;2.10;;;;;;;;;;5010765;28;20124;-76
2023/08/03 01:22:44;;;;;;;5.38;2.22;;;;;;;;;;5026066;28;20364;-77
2023/08/03 01:25:10;;;;;;;5.15;2.20;;;;;;;;;;5010742;28;20040;-76
2023/08/03 01:27:36;;;;;;;5.57;2.15;;;;;;;;;;5010872;28;20045;-77
2023/08/03 01:30:01;;;;;;;7.90;2.38;;;;;;;;;;5011666;28;20022;-77
2023/08/03 01:32:27;;;;;;;9.93;2.67;;;;;;;;;;5010739;28;20510;-77
2023/08/03 01:34:52;;;;;;;8.07;2.30;;;;;;;;;;5011481;28;20160;-77
2023/08/03 01:37:18;;;;;;;3.60;2.10;;;;;;;;;;5011284;28;20053;-76
2023/08/03 01:39:47;;;;;;;6.75;2.05;;;;;;;;;;5026485;28;20065;-76
2023/08/03 01:42:15;;;;;;;5.10;2.35;;;;;;;;;;5011637;28;20497;-77
2023/08/03 01:44:41;;;;;;;4.57;2.17;;;;;;;;;;5012187;28;20018;-77
2023/08/03 01:47:07;;;;;;;4.60;2.20;;;;;;;;;;5026458;28;20423;-77
2023/08/03 01:49:33;;;;;;;5.32;2.40;;;;;;;;;;5026552;28;20117;-77
2023/08/03 01:51:59;;;;;;;6.13;2.28;;;;;;;;;;5011127;28;20129;-76
2023/08/03 01:54:25;;;;;;;4.25;1.80;;;;;;;;;;5025913;28;20037;-76
2023/08/03 01:56:52;;;;;;;4.53;2.03;;;;;;;;;;5011527;28;20044;-76
2023/08/03 01:59:18;;;;;;;5.60;2.17;;;;;;;;;;5026101;28;20065;-76
2023/08/03 02:01:43;;;;;;;8.55;2.50;;;;;;;;;;5011063;28;20042;-76
2023/08/03 02:04:08;;;;;;;4.53;2.15;;;;;;;;;;5011024;28;20132;-76
2023/08/03 02:06:34;;;;;;;5.45;2.15;;;;;;;;;;5010839;28;20509;-76
2023/08/03 02:08:59;;;;;;;2.55;2.08;;;;;;;;;;5011533;28;20026;-74
2023/08/03 02:11:25;;;;;;;2.33;2.00;;;;;;;;;;5011191;28;20027;-76
2023/08/03 02:13:50;;;;;;;2.72;1.65;;;;;;;;;;5011229;28;20038;-77
2023/08/03 02:16:15;;;;;;;3.38;2.20;;;;;;;;;;5026362;28;20042;-76
2023/08/03 02:18:41;;;;;;;2.53;2.03;;;;;;;;;;5011337;28;20042;-76
2023/08/03 02:21:07;;;;;;;2.70;2.05;;;;;;;;;;5010626;28;20080;-77
2023/08/03 02:23:32;;;;;;;10.77;2.25;;;;;;;;;;5025693;28;20379;-76
2023/08/03 02:25:58;;;;;;;3.78;2.10;;;;;;;;;;5009651;28;20112;-75
2023/08/03 02:28:24;;;;;;;4.38;1.88;;;;;;;;;;5008276;28;20033;-75
2023/08/03 02:30:49;;;;;;;3.35;1.98;;;;;;;;;;5009427;28;20125;-76
2023/08/03 02:33:14;;;;;;;3.78;2.15;;;;;;;;;;5009732;28;20021;-76
2023/08/03 02:35:40;;;;;;;3.60;2.20;;;;;;;;;;5010237;28;20029;-76
2023/08/03 02:38:06;;;;;;;3.08;1.90;;;;;;;;;;5027373;28;20037;-77
2023/08/03 02:40:31;;;;;;;4.50;1.65;;;;;;;;;;5013377;28;20069;-76
2023/08/03 02:42:56;;;;;;;2.25;1.25;;;;;;;;;;5013075;28;20034;-76
2023/08/03 02:45:22;;;;;;;2.65;1.67;;;;;;;;;;5013345;28;20085;-76
2023/08/03 02:47:47;;;;;;;3.83;1.63;;;;;;;;;;5028893;28;20018;-75
2023/08/03 02:50:13;;;;;;;2.50;1.50;;;;;;;;;;5012983;28;20037;-76
2023/08/03 02:52:38;;;;;;;1.60;1.35;;;;;;;;;;5030259;28;20061;-78
2023/08/03 02:55:04;;;;;;;4.30;1.80;;;;;;;;;;5011115;28;20386;-76
2023/08/03 02:57:29;;;;;;;2.80;1.67;;;;;;;;;;5012770;28;20109;-77
2023/08/03 02:59:54;;;;;;;2.95;1.70;;;;;;;;;;5011137;28;20032;-76
2023/08/03 03:02:20;;;;;;;3.15;1.67;;;;;;;;;;5008797;28;20069;-76
2023/08/03 03:04:45;;;;;;;3.10;1.65;;;;;;;;;;5008859;28;20529;-77
2023/08/03 03:07:11;;;;;;;1.48;1.40;;;;;;;;;;5015177;28;20049;-77
2023/08/03 03:09:36;;;;;;;1.63;1.40;;;;;;;;;;5016272;28;20030;-76
2023/08/03 03:12:01;;;;;;;1.95;1.50;;;;;;;;;;5014984;28;20542;-78
2023/08/03 03:14:27;;;;;;;6.47;1.85;;;;;;;;;;5030648;28;20048;-78
2023/08/03 03:16:52;;;;;;;3.67;1.67;;;;;;;;;;5056445;23;20052;-81
2023/08/03 03:19:17;;;;;;;6.07;1.98;;;;;;;;;;5031027;28;20240;-84
2023/08/03 03:21:43;;;;;;;1.90;1.70;;;;;;;;;;5028266;28;20033;-81
2023/08/03 03:24:08;;;;;;;3.53;1.80;;;;;;;;;;5033346;28;20025;-80
2023/08/03 03:26:33;;;;;;;1.95;1.60;;;;;;;;;;5009329;28;20037;-79
2023/08/03 03:28:59;;;;;;;5.10;1.65;;;;;;;;;;5015414;28;20031;-79
2023/08/03 03:31:24;;;;;;;9.73;1.90;;;;;;;;;;5012845;28;20201;-81
2023/08/03 03:33:49;;;;;;;7.53;2.00;;;;;;;;;;5013842;28;20042;-78
2023/08/03 03:36:15;;;;;;;3.58;1.58;;;;;;;;;;5010374;28;20497;-81
2023/08/03 03:38:40;;;;;;;3.40;1.90;;;;;;;;;;5015902;28;20033;-79
2023/08/03 03:41:05;;;;;;;1.63;1.52;;;;;;;;;;5023567;28;20034;-82
2023/08/03 03:43:30;;;;;;;3.70;1.60;;;;;;;;;;5019494;28;20054;-79
2023/08/03 03:45:56;;;;;;;2.95;1.85;;;;;;;;;;5025043;28;20038;-81
2023/08/03 03:48:21;;;;;;;6.72;2.13;;;;;;;;;;5022490;28;20010;-79
2023/08/03 03:50:46;;;;;;;5.10;1.60;;;;;;;;;;5017788;28;20053;-79
2023/08/03 03:53:12;;;;;;;3.35;2.03;;;;;;;;;;5023417;28;20037;-80
2023/08/03 03:55:37;;;;;;;5.63;1.80;;;;;;;;;;5024188;28;20481;-80
2023/08/03 03:58:02;;;;;;;3.22;1.92;;;;;;;;;;5014034;28;20046;-80
2023/08/03 04:00:28;;;;;;;5.32;2.05;;;;;;;;;;5027100;28;20044;-80
2023/08/03 04:02:54;;;;;;;3.60;1.52;;;;;;;;;;5025571;28;20026;-81
2023/08/03 04:05:19;;;;;;;6.03;1.98;;;;;;;;;;5024923;28;20036;-80
2023/08/03 04:07:45;;;;;;;4.88;1.85;;;;;;;;;;5021878;28;20034;-79
2023/08/03 04:10:10;;;;;;;5.72;1.85;;;;;;;;;;5024921;28;20042;-79
2023/08/03 04:12:35;;;;;;;4.78;1.83;;;;;;;;;;5024909;28;20486;-80
2023/08/03 04:15:01;;;;;;;10.98;2.28;;;;;;;;;;5021412;28;20036;-79
2023/08/03 04:17:26;;;;;;;3.53;2.13;;;;;;;;;;5025800;28;20172;-80
2023/08/03 04:19:51;;;;;;;6.38;2.08;;;;;;;;;;5020705;28;20037;-80
2023/08/03 04:22:16;;;;;;;7.25;1.98;;;;;;;;;;5018160;28;20496;-79
2023/08/03 04:24:42;;;;;;;4.38;1.75;;;;;;;;;;5019307;28;20045;-79
2023/08/03 04:27:07;;;;;;;5.75;2.08;;;;;;;;;;5019569;28;20033;-79
2023/08/03 04:29:33;;;;;;;7.97;1.90;;;;;;;;;;5018073;28;20024;-81
2023/08/03 04:31:58;;;;;;;8.40;1.80;;;;;;;;;;5013419;28;20041;-81
2023/08/03 04:34:23;;;;;;;7.13;2.30;;;;;;;;;;5016360;28;20022;-81
2023/08/03 04:36:49;;;;;;;7.40;1.98;;;;;;;;;;5017042;28;20049;-79
2023/08/03 04:39:14;;;;;;;11.68;2.22;;;;;;;;;;5024057;28;20048;-82
2023/08/03 04:41:39;;;;;;;3.10;1.65;;;;;;;;;;5018383;28;20492;-83
2023/08/03 04:44:05;;;;;;;7.70;2.03;;;;;;;;;;5017761;28;20498;-82
2023/08/03 04:46:30;;;;;;;10.60;2.10;;;;;;;;;;5016974;28;20045;-83
2023/08/03 04:48:55;;;;;;;6.70;1.90;;;;;;;;;;5017370;28;20042;-81
2023/08/03 04:51:21;;;;;;;7.25;1.88;;;;;;;;;;5016204;28;20045;-83
2023/08/03 04:53:46;;;;;;;7.35;2.10;;;;;;;;;;5018011;28;20029;-81
2023/08/03 04:56:11;;;;;;;8.30;2.13;;;;;;;;;;5017444;28;20041;-81
2023/08/03 04:58:37;;;;;;;5.47;1.80;;;;;;;;;;5016468;28;20037;-83
2023/08/03 05:01:02;;;;;;;8.45;2.03;;;;;;;;;;5016429;28;20033;-82
2023/08/03 05:03:27;;;;;;;7.72;2.22;;;;;;;;;;5016668;28;20087;-81
2023/08/03 05:05:53;;;;;;;8.52;2.25;;;;;;;;;;5017924;28;20030;-83
2023/08/03 05:08:22;;;;;;;5.70;1.90;;;;;;;;;;5017673;28;20073;-81
2023/08/03 05:10:47;;;;;;;7.00;1.98;;;;;;;;;;5015784;28;20034;-80
2023/08/03 05:13:13;;;;;;;7.05;2.03;;;;;;;;;;5020802;28;20053;-80
2023/08/03 05:15:38;;;;;;;5.93;1.88;;;;;;;;;;5028510;28;20049;-81
2023/08/03 05:18:04;;;;;;;7.65;2.20;;;;;;;;;;5021505;28;20326;-79
2023/08/03 05:20:29;;;;;;;5.63;1.73;;;;;;;;;;5018507;28;20022;-80
2023/08/03 05:22:55;;;;;;;6.95;1.67;;;;;;;;;;5016569;28;20169;-80
2023/08/03 05:25:20;;;;;;;11.23;2.45;;;;;;;;;;5019463;28;20066;-81
2023/08/03 05:27:46;;;;;;;7.72;1.88;;;;;;;;;;5019442;28;20044;-80
2023/08/03 05:30:11;;;;;;;9.90;2.10;;;;;;;;;;5012247;28;20026;-80
2023/08/03 05:32:36;;;;;;;11.02;2.15;;;;;;;;;;5018102;28;20026;-80
2023/08/03 05:35:02;;;;;;;8.40;2.20;;;;;;;;;;5017895;28;20052;-82
2023/08/03 05:37:27;;;;;;;7.78;2.03;;;;;;;;;;5019799;28;20040;-81
2023/08/03 05:39:53;;;;;;;6.70;1.80;;;;;;;;;;5022929;28;20559;-80
2023/08/03 05:42:18;;;;;;;11.98;1.90;;;;;;;;;;5021032;28;20026;-80
2023/08/03 05:44:44;;;;;;;10.23;2.88;;;;;;;;;;5020318;28;21458;-81
2023/08/03 05:47:11;;;;;;;4.03;1.52;;;;;;;;;;5025305;28;20049;-79
2023/08/03 05:49:37;;;;;;;6.05;1.35;;;;;;;;;;5025973;28;20386;-79
2023/08/03 05:52:03;;;;;;;7.78;2.03;;;;;;;;;;5017808;28;20038;-78
2023/08/03 05:54:28;;;;;;;4.90;1.73;;;;;;;;;;5026310;28;20034;-78
2023/08/03 05:56:54;;;;;;;6.85;1.50;;;;;;;;;;5020055;28;20101;-79
2023/08/03 05:59:22;;;;;;;7.72;1.92;;;;;;;;;;5025515;28;20083;-79
2023/08/03 06:01:50;;;;;;;8.43;1.77;;;;;;;;;;5030900;28;20061;-79
2023/08/03 06:04:16;;;;;;;3.55;1.30;;;;;;;;;;5025834;28;20031;-80
2023/08/03 06:06:41;;;;;;;4.15;1.63;;;;;;;;;;5019529;28;20045;-78
2023/08/03 06:09:11;;;;;;;7.13;1.90;;;;;;;;;;5007732;28;20017;-77
2023/08/03 06:11:36;;;;;;;4.05;1.70;;;;;;;;;;5022977;28;20021;-79
2023/08/03 06:14:02;;;;;;;7.10;1.80;;;;;;;;;;5023194;28;20072;-79
2023/08/03 06:16:27;;;;;;;8.38;1.70;;;;;;;;;;5025946;28;20065;-79
2023/08/03 06:18:59;;;;;;;4.60;1.77;;;;;;;;;;5023606;28;20042;-77
2023/08/03 06:21:25;;;;;;;10.10;2.00;;;;;;;;;;5030377;28;20342;-78
2023/08/03 06:23:57;;;;;;;4.07;1.48;;;;;;;;;;5030589;28;20053;-78
2023/08/03 06:26:23;;;;;;;5.57;1.95;;;;;;;;;;5028348;28;20488;-78
2023/08/03 06:28:53;;;;;;;6.55;1.63;;;;;;;;;;5026355;28;20121;-79
2023/08/03 06:31:18;;;;;;;9.65;1.77;;;;;;;;;;5027342;28;20382;-78
2023/08/03 06:33:45;;;;;;;4.38;1.60;;;;;;;;;;5023023;28;20518;-79
2023/08/03 06:36:19;;;;;;;4.07;2.03;;;;;;;;;;5019788;28;20029;-77
2023/08/03 06:38:44;;;;;;;6.82;1.85;;;;;;;;;;5008681;28;20029;-78
2023/08/03 06:41:10;;;;;;;4.22;1.70;;;;;;;;;;5020096;28;20524;-79
2023/08/03 06:43:36;;;;;;;4.70;1.60;;;;;;;;;;5022334;28;20045;-80
2023/08/03 06:46:01;;;;;;;6.15;1.70;;;;;;;;;;5020083;28;20456;-81
2023/08/03 06:48:28;;;;;;;5.85;1.50;;;;;;;;;;5017996;28;20346;-80
2023/08/03 06:50:54;;;;;;;7.28;1.88;;;;;;;;;;5024372;28;20034;-80
2023/08/03 06:53:19;;;;;;;9.25;1.65;;;;;;;;;;5015970;28;20045;-80
2023/08/03 06:55:48;;;;;;;7.72;2.00;;;;;;;;;;5017921;28;20132;-80
2023/08/03 06:58:19;;;;;;;6.72;1.83;;;;;;;;;;5014203;28;20042;-79
2023/08/03 07:00:45;;;;;;;4.25;1.55;;;;;;;;;;5016028;28;20038;-78
2023/08/03 07:03:11;;;;;;;7.65;1.58;;;;;;;;;;5023755;28;20100;-80
2023/08/03 07:05:37;;;;;;;4.50;1.40;;;;;;;;;;5016571;28;20058;-81
2023/08/03 07:08:03;;;;;;;2.15;1.50;;;;;;;;;;5020648;28;20034;-81
2023/08/03 07:10:29;;;;;;;1.70;1.38;;;;;;;;;;5014301;28;20390;-81
2023/08/03 07:12:54;;;;;;;5.15;1.30;;;;;;;;;;5025910;28;20531;-81
2023/08/03 07:15:19;;;;;;;4.32;1.48;;;;;;;;;;5019624;28;20056;-80
2023/08/03 07:17:45;;;;;;;1.70;1.10;;;;;;;;;;5023543;28;20124;-80
2023/08/03 07:20:11;;;;;;;2.40;1.27;;;;;;;;;;5002018;28;20041;-79
2023/08/03 07:22:36;;;;;;;4.68;1.52;;;;;;;;;;5018919;28;20092;-79
2023/08/03 07:25:03;;;;;;;2.47;1.08;;;;;;;;;;5019043;28;20045;-80
2023/08/03 07:27:28;;;;;;;6.03;1.30;;;;;;;;;;5026378;28;20060;-80
2023/08/03 07:29:54;;;;;;;1.80;1.02;;;;;;;;;;5022789;28;20022;-80
2023/08/03 07:32:19;;;;;;;4.07;1.30;;;;;;;;;;5023527;28;20034;-79
2023/08/03 07:34:44;;;;;;;2.22;1.20;;;;;;;;;;5025095;28;20052;-80
2023/08/03 07:37:10;;;;;;;2.45;1.25;;;;;;;;;;5025278;28;20560;-79
2023/08/03 07:39:35;;;;;;;1.65;1.15;;;;;;;;;;5019326;28;20030;-79
2023/08/03 07:42:00;;;;;;;2.38;1.08;;;;;;;;;;5019943;28;20030;-81
2023/08/03 07:44:26;;;;;;;10.48;1.42;;;;;;;;;;5019231;28;20512;-81
2023/08/03 07:46:51;;;;;;;2.80;1.25;;;;;;;;;;5018320;28;20164;-81
2023/08/03 07:49:16;;;;;;;0.95;0.80;;;;;;;;;;5016852;28;20571;-79
2023/08/03 07:51:43;;;;;;;3.55;1.15;;;;;;;;;;5018629;28;20061;-79
2023/08/03 07:54:09;;;;;;;4.85;1.27;;;;;;;;;;5023806;28;20516;-80
2023/08/03 07:56:34;;;;;;;2.72;0.90;;;;;;;;;;5014466;28;20029;-80
2023/08/03 07:59:00;;;;;;;2.08;1.10;;;;;;;;;;5020696;28;20099;-80
2023/08/03 08:01:26;;;;;;;2.08;0.98;;;;;;;;;;4999666;28;20116;-81
2023/08/03 08:03:51;;;;;;;4.40;1.20;;;;;;;;;;5013839;28;20409;-80
2023/08/03 08:06:18;;;;;;;1.33;0.85;;;;;;;;;;5009933;28;20109;-80
2023/08/03 08:08:44;;;;;;;6.93;1.48;;;;;;;;;;5016015;28;20021;-80
2023/08/03 08:11:11;;;;;;;2.17;0.85;;;;;;;;;;5013026;28;20540;-83
2023/08/03 08:13:37;;;;;;;2.42;1.13;;;;;;;;;;5021020;28;20050;-80
2023/08/03 08:16:04;;;;;;;2.70;0.90;;;;;;;;;;4996111;28;20045;-80
2023/08/03 08:18:31;;;;;;;2.58;1.00;;;;;;;;;;5014197;28;20046;-80
2023/08/03 08:20:57;;;;;;;4.03;1.20;;;;;;;;;;5015428;28;20033;-78
2023/08/03 08:23:22;;;;;;;2.63;1.30;;;;;;;;;;5025618;28;20155;-80
2023/08/03 08:25:47;;;;;;;3.75;1.10;;;;;;;;;;5024525;28;20042;-81
2023/08/03 08:28:12;;;;;;;3.67;1.10;;;;;;;;;;5020520;28;20033;-80
2023/08/03 08:30:38;;;;;;;2.70;1.23;;;;;;;;;;5022429;28;20128;-80
2023/08/03 08:33:03;;;;;;;3.75;1.20;;;;;;;;;;5020210;28;20044;-81
2023/08/03 08:35:28;;;;;;;2.00;1.15;;;;;;;;;;5023506;28;20037;-80
2023/08/03 08:37:54;;;;;;;6.22;1.15;;;;;;;;;;5021479;28;20528;-81
2023/08/03 08:40:19;;;;;;;4.00;1.25;;;;;;;;;;5020640;28;20025;-78
2023/08/03 08:42:51;;;;;;;4.75;1.58;;;;;;;;;;5016862;28;20038;-80
2023/08/03 08:45:17;;;;;;;3.55;1.35;;;;;;;;;;5013232;28;20392;-79
2023/08/03 08:47:43;;;;;;;6.72;1.33;;;;;;;;;;5012018;28;20025;-81
2023/08/03 08:50:08;;;;;;;1.70;1.00;;;;;;;;;;5025291;28;20073;-79
2023/08/03 08:52:35;;;;;;;3.70;1.20;;;;;;;;;;5000946;28;20070;-79
2023/08/03 08:55:15;;;;;;;9.10;1.25;;;;;;;;;;5022391;28;20110;-79
2023/08/03 08:57:41;;;;;;;3.33;1.30;;;;;;;;;;5018381;28;20089;-79
2023/08/03 09:00:07;;;;;;;2.58;1.40;;;;;;;;;;5021049;28;20061;-79
2023/08/03 09:02:34;;;;;;;6.43;1.23;;;;;;;;;;5014383;28;20002;-79
2023/08/03 09:05:10;;;;;;;1.75;1.00;;;;;;;;;;5028490;28;20041;-79
2023/08/03 09:07:36;;;;;;;9.48;1.15;;;;;;;;;;5027418;28;20117;-79
2023/08/03 09:10:02;;;;;;;1.88;1.10;;;;;;;;;;5026320;28;20325;-78
2023/08/03 09:12:27;;;;;;;1.35;1.00;;;;;;;;;;5021116;28;20041;-79
2023/08/03 09:14:53;;;;;;;2.67;1.17;;;;;;;;;;5024620;28;20026;-78
2023/08/03 09:17:20;;;;;;;3.20;1.30;;;;;;;;;;5022768;28;20034;-80
2023/08/03 09:19:46;;;;;;;2.58;1.00;;;;;;;;;;5004780;28;20034;-79
2023/08/03 09:22:11;;;;;;;1.75;0.80;;;;;;;;;;5022661;28;20056;-81
2023/08/03 09:24:37;;;;;;;1.13;0.90;;;;;;;;;;5014678;28;20033;-80
2023/08/03 09:27:03;;;;;;;4.05;1.10;;;;;;;;;;5014132;28;20032;-80
2023/08/03 09:29:31;;;;;;;2.00;0.80;;;;;;;;;;5024297;28;20037;-81
2023/08/03 09:32:01;;;;;;;1.17;1.00;;;;;;;;;;5020022;28;20029;-81
2023/08/03 09:34:40;;;;;;;5.95;1.30;;;;;;;;;;5015155;28;20137;-81
2023/08/03 09:37:06;;;;;;;0.88;0.80;;;;;;;;;;5022072;28;20037;-80
2023/08/03 09:39:34;;;;;;;1.58;0.98;;;;;;;;;;5022231;28;20040;-81
2023/08/03 09:42:06;;;;;;;5.82;1.30;;;;;;;;;;5019598;28;20068;-80
2023/08/03 09:44:36;;;;;;;4.68;1.05;;;;;;;;;;4995504;28;20125;-80
2023/08/03 09:47:04;;;;;;;3.40;0.80;;;;;;;;;;5010051;28;20455;-81
2023/08/03 09:49:31;;;;;;;1.20;0.80;;;;;;;;;;5016010;28;20205;-80
2023/08/03 09:51:59;;;;;;;4.78;0.82;;;;;;;;;;5017748;28;20033;-80
2023/08/03 09:54:36;;;;;;;2.33;0.80;;;;;;;;;;5021934;28;20563;-81
2023/08/03 09:57:08;;;;;;;4.55;0.77;;;;;;;;;;5022643;28;20029;-81
2023/08/03 09:59:36;;;;;;;1.45;0.88;;;;;;;;;;5021722;28;20038;-81
2023/08/03 10:02:05;;;;;;;2.85;0.98;;;;;;;;;;5017729;28;20067;-81
2023/08/03 10:04:34;;;;;;;1.92;1.05;;;;;;;;;;5014233;28;20034;-79
2023/08/03 10:07:05;;;;;;;1.83;0.82;;;;;;;;;;5020220;28;20083;-81
2023/08/03 10:09:38;;;;;;;2.90;1.08;;;;;;;;;;5017775;28;20046;-81
2023/08/03 10:12:08;;;;;;;4.07;0.95;;;;;;;;;;5018064;28;20093;-81
2023/08/03 10:14:38;;;;;;;4.70;1.00;;;;;;;;;;5018260;28;20029;-80
2023/08/03 10:17:05;;;;;;;5.50;1.35;;;;;;;;;;5016261;28;20037;-79
2023/08/03 10:19:31;;;;;;;3.85;1.10;;;;;;;;;;5018880;28;20042;-81
2023/08/03 10:21:57;;;;;;;1.10;0.90;;;;;;;;;;5015305;28;20046;-81
2023/08/03 10:24:22;;;;;;;0.85;0.75;;;;;;;;;;5016262;28;20482;-80
2023/08/03 10:26:53;;;;;;;1.20;0.68;;;;;;;;;;5021524;28;20151;-80
2023/08/03 10:29:49;;;;;;;2.10;1.00;;;;;;;;;;5023698;28;20029;-81
2023/08/03 10:32:22;;;;;;;1.33;0.93;;;;;;;;;;4998082;28;20026;-80
2023/08/03 10:34:48;;;;;;;2.15;1.00;;;;;;;;;;5022563;28;20046;-82
2023/08/03 10:37:13;;;;;;;6.72;1.05;;;;;;;;;;5021472;28;20029;-82
2023/08/03 10:39:53;;;;;;;1.08;0.98;;;;;;;;;;5022202;28;20033;-81
2023/08/03 10:42:20;;;;;;;1.88;0.90;;;;;;;;;;5019046;28;20057;-79
2023/08/03 10:44:46;;;;;;;1.67;0.80;;;;;;;;;;5021060;28;20504;-80
2023/08/03 10:47:26;;;;;;;2.10;0.88;;;;;;;;;;5017669;28;20172;-81
2023/08/03 10:49:52;;;;;;;1.17;0.90;;;;;;;;;;5023135;28;20041;-79
2023/08/03 10:52:29;;;;;;;5.75;1.40;;;;;;;;;;5003998;28;20526;-83
2023/08/03 10:54:56;;;;;;;1.80;0.80;;;;;;;;;;4992405;28;20414;-83
2023/08/03 10:57:25;;;;;;;2.70;1.23;;;;;;;;;;5034939;28;20364;-83
2023/08/03 10:59:54;;;;;;;1.08;0.93;;;;;;;;;;5036767;28;20125;-84
2023/08/03 11:02:30;;;;;;;2.95;1.00;;;;;;;;;;5019788;28;20061;-81
2023/08/03 11:05:01;;;;;;;3.78;1.42;;;;;;;;;;5019313;28;20072;-83
2023/08/03 11:07:36;;;;;;;1.98;1.08;;;;;;;;;;5000516;28;20109;-82
2023/08/03 11:10:02;;;;;;;2.33;0.88;;;;;;;;;;5000661;28;20108;-83
2023/08/03 11:12:28;;;;;;;3.45;1.05;;;;;;;;;;5037377;28;20049;-82
2023/08/03 11:14:55;;;;;;;2.85;1.08;;;;;;;;;;5022781;28;20033;-83
2023/08/03 11:17:28;;;;;;;2.40;0.95;;;;;;;;;;5021528;28;20464;-83
2023/08/03 11:20:01;;;;;;;2.55;0.88;;;;;;;;;;5018987;28;20034;-82
2023/08/03 11:22:30;;;;;;;1.10;0.90;;;;;;;;;;5018357;28;20088;-83
2023/08/03 11:24:59;;;;;;;0.98;0.75;;;;;;;;;;5017988;28;20045;-80
2023/08/03 11:27:24;;;;;;;2.15;1.00;;;;;;;;;;5017679;28;20029;-82
2023/08/03 11:29:51;;;;;;;3.75;1.33;;;;;;;;;;5018961;28;20042;-83
2023/08/03 11:32:30;;;;;;;4.40;1.10;;;;;;;;;;5035691;28;20112;-81
2023/08/03 11:35:07;;;;;;;4.00;0.90;;;;;;;;;;4999563;28;20388;-82
2023/08/03 11:37:35;;;;;;;11.65;1.00;;;;;;;;;;4997578;28;20395;-82
2023/08/03 11:40:03;;;;;;;1.90;0.98;;;;;;;;;;4997970;28;20073;-82
2023/08/03 11:42:30;;;;;;;1.90;1.10;;;;;;;;;;4997754;28;20060;-82
2023/08/03 11:44:55;;;;;;;1.40;0.90;;;;;;;;;;5004754;28;20091;-82
2023/08/03 11:47:20;;;;;;;3.22;1.30;;;;;;;;;;5023879;28;20494;-82
2023/08/03 11:49:52;;;;;;;1.90;1.27;;;;;;;;;;5037095;28;20046;-80
2023/08/03 11:52:21;;;;;;;2.40;0.90;;;;;;;;;;5019661;28;20040;-82
2023/08/03 11:54:48;;;;;;;1.95;1.00;;;;;;;;;;5018620;28;20037;-81
2023/08/03 11:59:57;;;;;;;0.90;0.90;;;;;;;;;;5014701;28;20032;-82
2023/08/03 12:02:44;;;;;;;1.55;1.05;;;;;;;;;;5022429;28;20029;-80
2023/08/03 12:05:10;;;;;;;2.00;1.08;;;;;;;;;;5023887;28;20053;-82
2023/08/03 12:07:35;;;;;;;2.70;1.00;;;;;;;;;;5029451;28;20501;-81
2023/08/03 12:10:10;;;;;;;2.67;1.08;;;;;;;;;;5034563;28;20087;-82
2023/08/03 12:12:36;;;;;;;3.28;1.20;;;;;;;;;;5021383;28;20554;-82
2023/08/03 12:15:01;;;;;;;1.13;1.02;;;;;;;;;;5031127;28;20056;-80
2023/08/03 12:17:26;;;;;;;1.83;1.45;;;;;;;;;;5029253;28;20072;-82
2023/08/03 12:19:51;;;;;;;3.60;1.35;;;;;;;;;;5033040;28;20034;-80
2023/08/03 12:22:17;;;;;;;6.00;1.10;;;;;;;;;;5014406;28;20030;-82
2023/08/03 12:24:42;;;;;;;2.78;1.05;;;;;;;;;;5015385;28;20034;-82
2023/08/03 12:27:08;;;;;;;1.70;1.00;;;;;;;;;;5016581;28;20053;-80
2023/08/03 12:29:36;;;;;;;2.35;1.00;;;;;;;;;;5016716;28;20029;-83
2023/08/03 12:32:01;;;;;;;7.03;1.55;;;;;;;;;;5030574;28;20030;-83
2023/08/03 12:34:27;;;;;;;6.07;1.30;;;;;;;;;;5009659;28;20052;-83
2023/08/03 12:36:52;;;;;;;1.33;0.85;;;;;;;;;;5017742;28;20401;-81
2023/08/03 12:39:18;;;;;;;4.32;0.80;;;;;;;;;;5017485;28;20045;-82
2023/08/03 12:41:44;;;;;;;1.00;0.90;;;;;;;;;;5028800;28;20017;-84
2023/08/03 12:44:09;;;;;;;1.80;1.00;;;;;;;;;;5015253;28;20034;-82
2023/08/03 12:46:35;;;;;;;1.70;0.90;;;;;;;;;;5016507;28;20403;-80
2023/08/03 12:49:00;;;;;;;3.10;1.20;;;;;;;;;;5021753;28;20106;-82
2023/08/03 12:51:26;;;;;;;2.97;1.00;;;;;;;;;;5017237;28;20038;-82
2023/08/03 12:53:51;;;;;;;3.55;1.35;;;;;;;;;;5037207;28;20022;-82
2023/08/03 12:56:18;;;;;;;1.67;1.00;;;;;;;;;;5034508;28;20444;-78
2023/08/03 12:58:43;;;;;;;1.05;0.90;;;;;;;;;;5001850;28;20053;-82
2023/08/03 13:01:12;;;;;;;5.25;1.42;;;;;;;;;;5003392;28;20034;-82
2023/08/03 13:03:38;;;;;;;4.47;1.20;;;;;;;;;;5016016;28;20078;-82
2023/08/03 13:06:03;;;;;;;3.95;0.80;;;;;;;;;;5019884;28;20025;-82
2023/08/03 13:08:29;;;;;;;1.38;0.80;;;;;;;;;;5034348;28;20041;-82
2023/08/03 13:10:54;;;;;;;4.88;1.00;;;;;;;;;;5018153;28;20030;-82
2023/08/03 13:13:20;;;;;;;2.10;1.10;;;;;;;;;;4997416;28;20034;-81
2023/08/03 13:15:46;;;;;;;1.65;0.90;;;;;;;;;;5015092;28;20037;-82
2023/08/03 13:18:12;;;;;;;1.20;0.80;;;;;;;;;;5016239;28;20030;-83
2023/08/03 13:20:37;;;;;;;5.07;1.10;;;;;;;;;;5033147;28;20076;-82
2023/08/03 13:23:03;;;;;;;1.17;1.08;;;;;;;;;;5018309;28;20056;-83
2023/08/03 13:25:28;;;;;;;1.95;1.00;;;;;;;;;;5014741;28;20095;-80
2023/08/03 13:27:55;;;;;;;1.95;0.88;;;;;;;;;;5028753;28;20036;-82
2023/08/03 13:30:21;;;;;;;1.90;1.00;;;;;;;;;;5022593;28;20033;-82
2023/08/03 13:32:46;;;;;;;3.47;1.00;;;;;;;;;;5004387;28;20022;-82
2023/08/03 13:35:12;;;;;;;11.23;1.30;;;;;;;;;;5021500;28;20038;-81
2023/08/03 13:37:37;;;;;;;3.33;1.10;;;;;;;;;;5020687;28;20046;-82
2023/08/03 13:40:03;;;;;;;8.00;1.30;;;;;;;;;;5023223;28;20040;-82
2023/08/03 13:42:28;;;;;;;1.63;1.17;;;;;;;;;;5017644;28;20113;-82
2023/08/03 13:44:55;;;;;;;5.85;1.15;;;;;;;;;;5023838;28;20108;-81
2023/08/03 13:47:20;;;;;;;3.05;1.00;;;;;;;;;;5023025;28;20091;-80
2023/08/03 13:49:46;;;;;;;1.20;1.10;;;;;;;;;;5016856;28;20046;-81
2023/08/03 13:52:11;;;;;;;11.65;1.20;;;;;;;;;;5007690;28;20805;-81
2023/08/03 13:54:36;;;;;;;1.55;0.90;;;;;;;;;;5011174;28;20049;-81
2023/08/03 13:57:02;;;;;;;1.65;1.00;;;;;;;;;;5013187;28;20022;-81
2023/08/03 13:59:27;;;;;;;3.05;1.20;;;;;;;;;;5015147;28;20049;-81
2023/08/03 14:01:52;;;;;;;3.65;1.10;;;;;;;;;;5010499;28;20034;-80
2023/08/03 14:04:19;;;;;;;7.88;1.30;;;;;;;;;;4991624;28;20339;-81
2023/08/03 14:06:44;;;;;;;1.20;1.00;;;;;;;;;;5005516;28;20041;-81
2023/08/03 14:09:11;;;;;;;2.63;0.93;;;;;;;;;;5010310;28;20030;-82
2023/08/03 14:11:37;;;;;;;1.35;0.95;;;;;;;;;;5009071;28;20579;-81
2023/08/03 14:14:07;;;;;;;1.50;1.10;;;;;;;;;;5011497;28;20034;-80
2023/08/03 14:16:33;;;;;;;2.15;1.17;;;;;;;;;;5012724;28;20034;-80
2023/08/03 14:18:58;;;;;;;1.50;1.10;;;;;;;;;;5020202;28;20516;-82
2023/08/03 14:21:24;;;;;;;3.42;1.00;;;;;;;;;;5019675;28;20052;-78
2023/08/03 14:23:49;;;;;;;1.10;1.00;;;;;;;;;;5023409;28;20100;-78
2023/08/03 14:26:15;;;;;;;1.88;1.00;;;;;;;;;;5020908;28;20042;-79
2023/08/03 14:28:40;;;;;;;1.10;0.95;;;;;;;;;;5016003;28;20033;-79
2023/08/03 14:31:07;;;;;;;1.55;1.27;;;;;;;;;;5019223;28;20070;-80
2023/08/03 14:33:33;;;;;;;1.65;0.95;;;;;;;;;;5021513;28;20053;-79
2023/08/03 14:35:59;;;;;;;1.73;1.10;;;;;;;;;;5026573;28;20025;-80
2023/08/03 14:38:24;;;;;;;1.65;0.80;;;;;;;;;;5027879;28;20044;-78
2023/08/03 14:40:50;;;;;;;1.63;1.00;;;;;;;;;;5030500;28;20073;-81